Terminal Aerodrome Forecast
Issued by NWS Melbourne, FL

Home | Current Version | Previous Version | Text Only | Print | Product List | Glossary On
Versions: 1 2 3 4 5 6 7 8 9 10 11 12 13 14
000
FTUS42 KMLB 312343
TAFDAB
TAF
KDAB 312343Z 0100/0124 19006KT P6SM FEW023 SCT150 BKN250
     FM011400 21012G17KT P6SM VCSH SCT020 BKN120
     FM011800 22010G15KT P6SM VCTS SCT030CB BKN060 BKN150=

USA.gov is the U.S. government's official web portal to all federal, state and local government web resources and services.